Time;durP1;ratioP1;P1;durP2;ratioP2;P2;SDS_P1;SDS_P2;PMS_P1;PMS_P2;Temp;Humidity;BMP_temperature;BMP_pressure;BME280_temperature;BME280_humidity;BME280_pressure;Samples;Min_cycle;Max_cycle;Signal;HPM_P1;HPM_P2
2023/06/19 00:00:02;;;;;;;0.10;0.10;;;;;;;;;;5113604;28;20546;-48
2023/06/19 00:02:28;;;;;;;0.15;0.15;;;;;;;;;;5079040;28;20047;-50
2023/06/19 00:04:53;;;;;;;0.10;0.10;;;;;;;;;;5096861;28;20101;-48
2023/06/19 00:07:21;;;;;;;0.10;0.10;;;;;;;;;;5099949;28;20134;-47
2023/06/19 00:09:47;;;;;;;;;;;;;;;;;;5114812;28;20071;-48
2023/06/19 00:12:12;;;;;;;0.10;0.10;;;;;;;;;;5096774;28;19958;-48
2023/06/19 00:14:38;;;;;;;0.10;0.10;;;;;;;;;;5096491;28;20040;-46
2023/06/19 00:17:05;;;;;;;0.17;0.17;;;;;;;;;;5097105;28;20050;-49
2023/06/19 00:19:35;;;;;;;0.10;0.10;;;;;;;;;;5117726;28;20051;-49
2023/06/19 00:22:02;;;;;;;0.10;0.10;;;;;;;;;;5079257;28;20205;-46
2023/06/19 00:24:27;;;;;;;0.10;0.10;;;;;;;;;;5096462;28;20086;-47
2023/06/19 00:26:53;;;;;;;0.10;0.10;;;;;;;;;;5096607;28;20051;-48
2023/06/19 00:29:19;;;;;;;0.10;0.10;;;;;;;;;;5114999;28;20422;-48
2023/06/19 00:31:44;;;;;;;0.10;0.10;;;;;;;;;;5116645;28;20053;-48
2023/06/19 00:34:10;;;;;;;0.10;0.10;;;;;;;;;;5116943;28;20039;-50
2023/06/19 00:36:40;;;;;;;0.15;0.15;;;;;;;;;;5116969;28;20047;-48
2023/06/19 00:39:07;;;;;;;0.10;0.10;;;;;;;;;;5116812;28;20435;-50
2023/06/19 00:41:33;;;;;;;0.10;0.10;;;;;;;;;;5116595;28;20551;-49
2023/06/19 00:43:59;;;;;;;0.10;0.10;;;;;;;;;;5097976;28;20067;-47
2023/06/19 00:46:24;;;;;;;0.20;0.20;;;;;;;;;;5116827;28;20054;-48
2023/06/19 00:48:50;;;;;;;0.10;0.10;;;;;;;;;;5116869;28;20047;-46
2023/06/19 00:51:16;;;;;;;0.10;0.10;;;;;;;;;;5121675;27;20099;-48
2023/06/19 00:53:41;;;;;;;0.10;0.10;;;;;;;;;;5137275;27;20452;-47
2023/06/19 00:56:07;;;;;;;0.10;0.10;;;;;;;;;;5137755;27;20054;-49
2023/06/19 00:58:33;;;;;;;0.10;0.10;;;;;;;;;;5125447;27;20315;-50
2023/06/19 01:00:58;;;;;;;0.10;0.10;;;;;;;;;;5104331;28;20050;-49
2023/06/19 01:03:33;;;;;;;0.20;0.20;;;;;;;;;;5095838;28;20046;-48
2023/06/19 01:06:00;;;;;;;0.10;0.10;;;;;;;;;;5095862;28;20368;-49
2023/06/19 01:08:37;;;;;;;0.10;0.10;;;;;;;;;;5106131;28;20044;-46
2023/06/19 01:11:03;;;;;;;0.10;0.10;;;;;;;;;;5103701;28;20051;-47
2023/06/19 01:13:45;;;;;;;0.10;0.10;;;;;;;;;;5095873;28;20048;-46
2023/06/19 01:16:12;;;;;;;0.10;0.10;;;;;;;;;;5095849;28;20051;-47
2023/06/19 01:18:37;;;;;;;0.10;0.10;;;;;;;;;;5107601;28;20051;-46
2023/06/19 01:21:13;;;;;;;0.20;0.20;;;;;;;;;;5103422;28;20055;-49
2023/06/19 01:23:40;;;;;;;0.10;0.10;;;;;;;;;;5077290;28;20075;-48
2023/06/19 01:26:06;;;;;;;0.10;0.10;;;;;;;;;;5076999;28;20044;-47
2023/06/19 01:28:33;;;;;;;0.10;0.10;;;;;;;;;;5105911;28;20043;-47
2023/06/19 01:31:00;;;;;;;0.10;0.10;;;;;;;;;;5112191;28;20043;-50
2023/06/19 01:33:27;;;;;;;0.10;0.10;;;;;;;;;;5097059;28;20124;-48
2023/06/19 01:35:54;;;;;;;0.10;0.10;;;;;;;;;;5116459;28;20043;-47
2023/06/19 01:38:20;;;;;;;0.20;0.20;;;;;;;;;;5115413;28;20124;-46
2023/06/19 01:40:48;;;;;;;0.10;0.10;;;;;;;;;;5097661;28;20512;-50
2023/06/19 01:43:14;;;;;;;0.10;0.10;;;;;;;;;;5116744;28;20043;-48
2023/06/19 01:45:39;;;;;;;0.10;0.10;;;;;;;;;;5097174;28;20139;-49
2023/06/19 01:48:05;;;;;;;0.10;0.10;;;;;;;;;;5115752;28;20119;-48
2023/06/19 01:50:31;;;;;;;0.20;0.20;;;;;;;;;;5109047;28;20074;-49
2023/06/19 01:52:56;;;;;;;0.10;0.10;;;;;;;;;;5117276;27;20086;-48
2023/06/19 01:55:22;;;;;;;0.10;0.10;;;;;;;;;;5115656;28;20146;-49
2023/06/19 01:57:47;;;;;;;0.10;0.10;;;;;;;;;;5115398;28;20645;-49
2023/06/19 02:00:13;;;;;;;0.10;0.10;;;;;;;;;;5115599;28;20533;-48
2023/06/19 02:02:38;;;;;;;0.10;0.10;;;;;;;;;;5116519;28;20428;-48
2023/06/19 02:05:04;;;;;;;0.10;0.10;;;;;;;;;;5115186;28;20058;-47
2023/06/19 02:07:30;;;;;;;0.20;0.20;;;;;;;;;;5114530;28;20100;-51
2023/06/19 02:09:56;;;;;;;0.10;0.10;;;;;;;;;;5115186;28;20331;-46
2023/06/19 02:12:21;;;;;;;0.10;0.10;;;;;;;;;;5115907;28;20043;-46
2023/06/19 02:14:47;;;;;;;0.10;0.10;;;;;;;;;;5114810;27;20047;-47
2023/06/19 02:17:12;;;;;;;0.10;0.10;;;;;;;;;;5115288;28;20054;-48
2023/06/19 02:19:38;;;;;;;0.10;0.10;;;;;;;;;;5115314;28;20071;-47
2023/06/19 02:22:04;;;;;;;0.10;0.10;;;;;;;;;;5115784;28;20043;-47
2023/06/19 02:24:29;;;;;;;0.10;0.10;;;;;;;;;;5116003;28;20086;-50
2023/06/19 02:26:55;;;;;;;0.10;0.10;;;;;;;;;;5115294;28;20058;-47
2023/06/19 02:29:20;;;;;;;0.10;0.10;;;;;;;;;;5115324;28;20439;-47
2023/06/19 02:31:46;;;;;;;0.10;0.10;;;;;;;;;;5114905;28;20229;-48
2023/06/19 02:34:11;;;;;;;0.10;0.10;;;;;;;;;;5115208;28;20043;-48
2023/06/19 02:36:37;;;;;;;0.10;0.10;;;;;;;;;;5114634;28;20391;-47
2023/06/19 02:39:04;;;;;;;0.10;0.10;;;;;;;;;;5114548;28;20051;-48
2023/06/19 02:41:30;;;;;;;0.10;0.10;;;;;;;;;;5079255;28;20044;-49
2023/06/19 02:43:55;;;;;;;0.10;0.10;;;;;;;;;;5094669;28;20100;-46
2023/06/19 02:46:21;;;;;;;0.10;0.10;;;;;;;;;;5094574;28;20051;-51
2023/06/19 02:48:46;;;;;;;0.10;0.10;;;;;;;;;;5104248;27;20100;-49
2023/06/19 02:51:12;;;;;;;0.10;0.10;;;;;;;;;;5114921;28;20043;-50
2023/06/19 02:53:37;;;;;;;0.10;0.10;;;;;;;;;;5114376;28;20134;-49
2023/06/19 02:56:03;;;;;;;0.10;0.10;;;;;;;;;;5115496;28;20213;-49
2023/06/19 02:58:29;;;;;;;0.15;0.15;;;;;;;;;;5114751;27;20050;-48
2023/06/19 03:00:54;;;;;;;0.10;0.10;;;;;;;;;;5102932;28;20141;-48
2023/06/19 03:03:20;;;;;;;0.10;0.10;;;;;;;;;;5094364;28;20085;-47
2023/06/19 03:05:46;;;;;;;0.10;0.10;;;;;;;;;;5094932;28;20171;-47
2023/06/19 03:08:11;;;;;;;0.10;0.10;;;;;;;;;;5098005;28;20078;-48
2023/06/19 03:10:37;;;;;;;0.10;0.10;;;;;;;;;;5105354;28;20297;-47
2023/06/19 03:13:02;;;;;;;0.10;0.10;;;;;;;;;;5094415;28;20074;-47
2023/06/19 03:15:28;;;;;;;0.10;0.10;;;;;;;;;;5093764;28;20074;-47
2023/06/19 03:17:53;;;;;;;0.10;0.10;;;;;;;;;;5095452;28;20044;-46
2023/06/19 03:20:20;;;;;;;0.20;0.20;;;;;;;;;;5107299;28;20138;-47
2023/06/19 03:22:46;;;;;;;0.10;0.10;;;;;;;;;;5094146;28;20151;-47
2023/06/19 03:25:11;;;;;;;0.10;0.10;;;;;;;;;;5093161;28;20047;-48
2023/06/19 03:27:37;;;;;;;0.20;0.20;;;;;;;;;;5094458;28;20134;-47
2023/06/19 03:30:06;;;;;;;0.10;0.10;;;;;;;;;;5108435;28;20047;-48
2023/06/19 03:32:33;;;;;;;0.10;0.10;;;;;;;;;;5093999;28;20051;-47
2023/06/19 03:34:58;;;;;;;0.10;0.10;;;;;;;;;;5107735;28;20384;-47
2023/06/19 03:37:24;;;;;;;0.10;0.10;;;;;;;;;;5113477;28;20044;-47
2023/06/19 03:39:50;;;;;;;0.10;0.10;;;;;;;;;;5095178;28;20207;-47
2023/06/19 03:42:15;;;;;;;0.10;0.10;;;;;;;;;;5094096;28;20051;-48
2023/06/19 03:44:40;;;;;;;0.10;0.10;;;;;;;;;;5093267;28;20077;-47
2023/06/19 03:47:06;;;;;;;0.10;0.10;;;;;;;;;;5093904;28;20408;-47
2023/06/19 03:49:32;;;;;;;0.10;0.10;;;;;;;;;;5114525;27;20130;-47
2023/06/19 03:51:57;;;;;;;0.10;0.10;;;;;;;;;;5093996;28;20253;-47
2023/06/19 03:54:23;;;;;;;0.10;0.10;;;;;;;;;;5099328;28;20427;-48
2023/06/19 03:56:48;;;;;;;0.10;0.10;;;;;;;;;;5114374;28;20051;-47
2023/06/19 03:59:14;;;;;;;0.10;0.10;;;;;;;;;;5114512;28;20047;-47
2023/06/19 04:01:40;;;;;;;0.17;0.17;;;;;;;;;;5113913;28;20071;-48
2023/06/19 04:04:06;;;;;;;0.10;0.10;;;;;;;;;;5114210;28;20051;-47
2023/06/19 04:06:31;;;;;;;0.10;0.10;;;;;;;;;;5113728;28;20070;-47
2023/06/19 04:08:57;;;;;;;0.10;0.10;;;;;;;;;;5113906;28;20510;-47
2023/06/19 04:11:22;;;;;;;0.10;0.10;;;;;;;;;;5113108;28;20043;-49
2023/06/19 04:13:48;;;;;;;0.10;0.10;;;;;;;;;;5094764;28;20047;-47
2023/06/19 04:16:13;;;;;;;0.15;0.15;;;;;;;;;;5113671;28;20153;-46
2023/06/19 04:18:39;;;;;;;0.10;0.10;;;;;;;;;;5113476;28;20092;-47
2023/06/19 04:21:04;;;;;;;0.10;0.10;;;;;;;;;;5113658;28;20463;-47
2023/06/19 04:23:30;;;;;;;0.10;0.10;;;;;;;;;;5113897;28;20368;-47
2023/06/19 04:25:55;;;;;;;0.17;0.17;;;;;;;;;;5113837;28;20056;-47
2023/06/19 04:28:21;;;;;;;0.10;0.10;;;;;;;;;;5113997;28;20044;-47
2023/06/19 04:30:46;;;;;;;0.13;0.13;;;;;;;;;;5113577;28;20108;-47
2023/06/19 04:33:12;;;;;;;0.10;0.10;;;;;;;;;;5113525;28;20039;-47
2023/06/19 04:35:39;;;;;;;0.10;0.10;;;;;;;;;;5113160;27;20043;-48
2023/06/19 04:38:05;;;;;;;0.10;0.10;;;;;;;;;;5115372;28;20039;-47
2023/06/19 04:40:32;;;;;;;0.10;0.10;;;;;;;;;;5089655;28;20564;-47
2023/06/19 04:42:58;;;;;;;0.13;0.13;;;;;;;;;;5096472;28;20046;-47
2023/06/19 04:45:24;;;;;;;0.10;0.10;;;;;;;;;;5095818;28;20411;-47
2023/06/19 04:47:49;;;;;;;0.10;0.10;;;;;;;;;;5097191;27;20344;-47
2023/06/19 04:50:19;;;;;;;0.10;0.10;;;;;;;;;;5117501;28;20134;-51
2023/06/19 04:52:45;;;;;;;0.10;0.10;;;;;;;;;;5116631;28;20046;-51
2023/06/19 04:55:10;;;;;;;0.10;0.10;;;;;;;;;;5116439;28;20047;-48
2023/06/19 04:57:36;;;;;;;0.10;0.10;;;;;;;;;;5116248;28;20182;-49
2023/06/19 05:00:06;;;;;;;0.20;0.20;;;;;;;;;;5117011;28;20411;-48
2023/06/19 05:02:31;;;;;;;0.10;0.10;;;;;;;;;;5116846;28;20535;-47
2023/06/19 05:04:57;;;;;;;0.10;0.10;;;;;;;;;;5116166;28;20082;-47
2023/06/19 05:07:22;;;;;;;0.10;0.10;;;;;;;;;;5116416;28;20103;-47
2023/06/19 05:09:48;;;;;;;0.20;0.20;;;;;;;;;;5116014;28;20046;-47
2023/06/19 05:12:13;;;;;;;0.10;0.10;;;;;;;;;;5116644;28;20122;-50
2023/06/19 05:14:39;;;;;;;0.10;0.10;;;;;;;;;;5115198;28;20043;-48
2023/06/19 05:17:05;;;;;;;0.10;0.10;;;;;;;;;;5115549;28;20043;-48
2023/06/19 05:19:31;;;;;;;0.10;0.10;;;;;;;;;;5114916;28;20058;-50
2023/06/19 05:21:56;;;;;;;0.10;0.10;;;;;;;;;;5115314;28;20047;-47
2023/06/19 05:24:22;;;;;;;0.10;0.10;;;;;;;;;;5115450;28;20103;-47
2023/06/19 05:26:47;;;;;;;0.10;0.10;;;;;;;;;;5115415;28;20134;-48
2023/06/19 05:29:13;;;;;;;0.10;0.10;;;;;;;;;;5115905;28;20483;-47
2023/06/19 05:31:38;;;;;;;0.10;0.10;;;;;;;;;;5109494;28;20620;-48
2023/06/19 05:34:04;;;;;;;0.10;0.10;;;;;;;;;;5095490;28;20058;-48
2023/06/19 05:36:29;;;;;;;0.10;0.10;;;;;;;;;;5102468;28;20050;-48
2023/06/19 05:38:55;;;;;;;0.15;0.15;;;;;;;;;;5113615;28;20491;-49
2023/06/19 05:41:21;;;;;;;0.10;0.10;;;;;;;;;;5101382;28;20054;-49
2023/06/19 05:43:47;;;;;;;0.10;0.10;;;;;;;;;;5102573;28;20496;-48
2023/06/19 05:46:12;;;;;;;0.10;0.10;;;;;;;;;;5114411;28;20239;-49
2023/06/19 05:48:38;;;;;;;0.10;0.10;;;;;;;;;;5096962;27;20064;-49
2023/06/19 05:51:03;;;;;;;0.10;0.10;;;;;;;;;;5097493;28;20043;-48
2023/06/19 05:53:31;;;;;;;0.10;0.10;;;;;;;;;;5101776;28;20051;-48
2023/06/19 05:55:56;;;;;;;0.10;0.10;;;;;;;;;;5086350;28;20075;-47
2023/06/19 05:58:23;;;;;;;0.10;0.10;;;;;;;;;;5100710;28;20308;-50
2023/06/19 06:00:49;;;;;;;0.10;0.10;;;;;;;;;;5096679;28;20263;-51
2023/06/19 06:03:14;;;;;;;0.10;0.10;;;;;;;;;;5095079;28;20644;-51
2023/06/19 06:05:41;;;;;;;0.10;0.10;;;;;;;;;;5096226;28;20048;-57
2023/06/19 06:08:06;;;;;;;0.10;0.10;;;;;;;;;;5094642;28;20051;-54
2023/06/19 06:10:32;;;;;;;0.10;0.10;;;;;;;;;;5106884;28;20186;-47
2023/06/19 06:12:58;;;;;;;0.10;0.10;;;;;;;;;;5093370;28;20619;-48
2023/06/19 06:15:23;;;;;;;0.10;0.10;;;;;;;;;;5100037;28;20264;-50
2023/06/19 06:17:49;;;;;;;0.10;0.10;;;;;;;;;;5083731;28;20052;-48
2023/06/19 06:20:14;;;;;;;0.10;0.10;;;;;;;;;;5086147;28;20447;-47
2023/06/19 06:22:40;;;;;;;0.10;0.10;;;;;;;;;;5081637;28;20596;-49
2023/06/19 06:25:07;;;;;;;0.10;0.10;;;;;;;;;;5084391;28;20550;-48
2023/06/19 06:27:32;;;;;;;0.10;0.10;;;;;;;;;;5057460;28;20415;-47
2023/06/19 06:29:58;;;;;;;0.10;0.10;;;;;;;;;;5072222;28;20043;-49
2023/06/19 06:32:24;;;;;;;0.10;0.10;;;;;;;;;;5069367;27;20047;-47
2023/06/19 06:34:49;;;;;;;0.10;0.10;;;;;;;;;;5070577;28;20047;-47
2023/06/19 06:37:17;;;;;;;0.10;0.10;;;;;;;;;;5083115;28;20048;-46
2023/06/19 06:39:42;;;;;;;0.10;0.10;;;;;;;;;;5094642;28;20066;-48
2023/06/19 06:42:08;;;;;;;0.10;0.10;;;;;;;;;;5094428;28;20462;-48
2023/06/19 06:44:35;;;;;;;0.10;0.10;;;;;;;;;;5093695;28;20056;-47
2023/06/19 06:47:01;;;;;;;0.10;0.10;;;;;;;;;;5074487;28;20424;-47
2023/06/19 06:49:26;;;;;;;0.10;0.10;;;;;;;;;;5095721;27;20491;-47
2023/06/19 06:51:52;;;;;;;0.10;0.10;;;;;;;;;;5076759;28;20632;-48
2023/06/19 06:54:19;;;;;;;0.15;0.15;;;;;;;;;;5078385;28;20424;-47
2023/06/19 06:56:47;;;;;;;0.10;0.10;;;;;;;;;;5077846;28;20382;-47
2023/06/19 06:59:13;;;;;;;0.10;0.10;;;;;;;;;;5083011;27;20130;-47
2023/06/19 07:01:38;;;;;;;0.10;0.10;;;;;;;;;;5090845;28;20182;-48
2023/06/19 07:04:04;;;;;;;0.10;0.10;;;;;;;;;;5090060;28;20544;-48
2023/06/19 07:06:29;;;;;;;0.10;0.10;;;;;;;;;;5094831;28;20042;-51
2023/06/19 07:08:55;;;;;;;0.10;0.10;;;;;;;;;;5089774;28;20308;-49
2023/06/19 07:11:20;;;;;;;0.10;0.10;;;;;;;;;;5091533;28;20047;-48
2023/06/19 07:13:46;;;;;;;0.10;0.10;;;;;;;;;;5092009;28;20409;-48
2023/06/19 07:16:12;;;;;;;0.10;0.10;;;;;;;;;;5087233;28;20070;-48
2023/06/19 07:18:38;;;;;;;0.10;0.10;;;;;;;;;;5094405;27;20056;-54
2023/06/19 07:21:07;;;;;;;0.10;0.10;;;;;;;;;;5086098;28;20070;-47
2023/06/19 07:23:33;;;;;;;0.25;0.17;;;;;;;;;;5090896;28;20062;-48
2023/06/19 07:26:01;;;;;;;;;;;;;;;;;;5093088;28;20427;-48
2023/06/19 07:28:27;;;;;;;0.10;0.10;;;;;;;;;;5087995;28;20419;-49
2023/06/19 07:30:52;;;;;;;0.10;0.10;;;;;;;;;;5095522;28;20522;-48
2023/06/19 07:33:18;;;;;;;0.10;0.10;;;;;;;;;;5094916;28;20047;-48
2023/06/19 07:35:43;;;;;;;0.10;0.10;;;;;;;;;;5100875;28;20504;-47
2023/06/19 07:38:09;;;;;;;0.10;0.10;;;;;;;;;;5102384;28;20043;-48
2023/06/19 07:40:34;;;;;;;0.10;0.10;;;;;;;;;;5098328;28;20096;-48
2023/06/19 07:43:00;;;;;;;0.10;0.10;;;;;;;;;;5104315;28;20050;-48
2023/06/19 07:45:25;;;;;;;0.10;0.10;;;;;;;;;;5096803;28;20137;-47
2023/06/19 07:47:55;;;;;;;0.10;0.10;;;;;;;;;;5095734;27;20051;-49
2023/06/19 07:50:20;;;;;;;0.10;0.10;;;;;;;;;;5098857;28;20952;-52
2023/06/19 07:52:46;;;;;;;0.10;0.10;;;;;;;;;;5094286;28;20093;-48
2023/06/19 07:55:12;;;;;;;0.10;0.10;;;;;;;;;;5100446;27;20050;-52
2023/06/19 07:57:37;;;;;;;0.10;0.10;;;;;;;;;;5101342;28;20044;-51
2023/06/19 08:00:08;;;;;;;0.10;0.10;;;;;;;;;;5093171;28;20047;-47
2023/06/19 08:02:34;;;;;;;0.10;0.10;;;;;;;;;;5091497;28;20063;-48
2023/06/19 08:05:00;;;;;;;0.10;0.10;;;;;;;;;;5101040;27;20058;-51
2023/06/19 08:07:25;;;;;;;0.10;0.10;;;;;;;;;;5089623;28;20144;-48
2023/06/19 08:09:51;;;;;;;0.10;0.10;;;;;;;;;;5086825;27;20132;-48
2023/06/19 08:12:30;;;;;;;0.10;0.10;;;;;;;;;;5104390;27;20053;-48
2023/06/19 08:14:55;;;;;;;0.10;0.10;;;;;;;;;;5101714;28;20040;-50
2023/06/19 08:17:21;;;;;;;0.10;0.10;;;;;;;;;;5084728;28;20046;-47
2023/06/19 08:19:47;;;;;;;0.10;0.10;;;;;;;;;;5101156;27;20044;-49
2023/06/19 08:22:12;;;;;;;0.10;0.10;;;;;;;;;;5086495;28;20048;-47
2023/06/19 08:24:40;;;;;;;0.20;0.20;;;;;;;;;;5095767;27;20727;-47
2023/06/19 08:27:06;;;;;;;0.10;0.10;;;;;;;;;;5096701;28;20091;-48
2023/06/19 08:29:32;;;;;;;0.10;0.10;;;;;;;;;;5106731;27;20426;-48
2023/06/19 08:31:57;;;;;;;0.10;0.10;;;;;;;;;;5093559;28;20193;-50
2023/06/19 08:34:23;;;;;;;0.10;0.10;;;;;;;;;;5103201;27;20343;-48
2023/06/19 08:36:49;;;;;;;0.10;0.10;;;;;;;;;;5101155;28;20153;-49
2023/06/19 08:39:14;;;;;;;0.10;0.10;;;;;;;;;;5101235;28;20043;-48
2023/06/19 08:41:41;;;;;;;0.10;0.10;;;;;;;;;;5096065;28;20853;-46
2023/06/19 08:44:07;;;;;;;0.10;0.10;;;;;;;;;;5102319;28;20342;-48
2023/06/19 08:46:34;;;;;;;0.10;0.10;;;;;;;;;;5090051;27;20047;-48
2023/06/19 08:49:00;;;;;;;0.10;0.10;;;;;;;;;;5090245;27;20051;-47
2023/06/19 08:51:28;;;;;;;0.10;0.10;;;;;;;;;;5100872;27;20035;-53
2023/06/19 08:53:55;;;;;;;0.10;0.10;;;;;;;;;;5098598;28;20455;-47
2023/06/19 08:56:20;;;;;;;0.10;0.10;;;;;;;;;;5086723;27;20275;-48
2023/06/19 08:58:46;;;;;;;0.10;0.10;;;;;;;;;;5091188;28;20268;-49
2023/06/19 09:01:14;;;;;;;0.10;0.10;;;;;;;;;;5087236;28;20172;-49
2023/06/19 09:03:39;;;;;;;0.10;0.10;;;;;;;;;;5087447;28;21298;-50
2023/06/19 09:06:07;;;;;;;0.10;0.10;;;;;;;;;;5090367;27;20549;-47
2023/06/19 09:08:32;;;;;;;0.10;0.10;;;;;;;;;;5077928;28;20080;-48
2023/06/19 09:10:59;;;;;;;0.10;0.10;;;;;;;;;;5088769;28;21676;-48
2023/06/19 09:13:24;;;;;;;0.10;0.10;;;;;;;;;;5087590;28;20040;-48
2023/06/19 09:15:57;;;;;;;0.20;0.20;;;;;;;;;;5074737;28;20067;-48
2023/06/19 09:18:23;;;;;;;0.10;0.10;;;;;;;;;;5065378;28;20746;-49
2023/06/19 09:20:51;;;;;;;0.10;0.10;;;;;;;;;;5084620;28;20659;-48
2023/06/19 09:23:17;;;;;;;0.10;0.10;;;;;;;;;;5085470;27;20073;-48
2023/06/19 09:25:44;;;;;;;0.10;0.10;;;;;;;;;;5076286;27;20169;-48
2023/06/19 09:28:16;;;;;;;0.10;0.10;;;;;;;;;;5079673;27;20055;-48
2023/06/19 09:30:50;;;;;;;0.10;0.10;;;;;;;;;;5075206;28;20050;-49
2023/06/19 09:33:16;;;;;;;0.10;0.10;;;;;;;;;;5090549;28;20608;-49
2023/06/19 09:35:42;;;;;;;0.10;0.10;;;;;;;;;;5089842;27;20343;-48
2023/06/19 09:38:08;;;;;;;0.10;0.10;;;;;;;;;;5090855;27;20050;-47
2023/06/19 09:40:33;;;;;;;0.10;0.10;;;;;;;;;;5101593;28;20066;-48
2023/06/19 09:42:59;;;;;;;0.10;0.10;;;;;;;;;;5093966;27;20284;-48
2023/06/19 09:45:26;;;;;;;0.10;0.10;;;;;;;;;;5099364;27;20055;-48
2023/06/19 09:47:53;;;;;;;0.10;0.10;;;;;;;;;;5091534;27;20067;-50
2023/06/19 09:50:22;;;;;;;0.10;0.10;;;;;;;;;;5087157;28;20096;-47
2023/06/19 09:52:50;;;;;;;0.10;0.10;;;;;;;;;;5097064;27;20382;-59
2023/06/19 09:55:17;;;;;;;0.10;0.10;;;;;;;;;;5095440;28;20387;-68
2023/06/19 09:57:44;;;;;;;0.10;0.10;;;;;;;;;;5086882;27;20071;-56
2023/06/19 10:00:12;;;;;;;0.10;0.10;;;;;;;;;;5092537;27;20054;-58
2023/06/19 10:02:39;;;;;;;0.10;0.10;;;;;;;;;;5102417;27;20050;-45
2023/06/19 10:05:08;;;;;;;0.10;0.10;;;;;;;;;;5099463;28;20036;-56
2023/06/19 10:07:34;;;;;;;0.10;0.10;;;;;;;;;;5102113;27;20090;-47
2023/06/19 10:10:01;;;;;;;0.10;0.10;;;;;;;;;;5099786;27;20058;-46
2023/06/19 10:12:43;;;;;;;0.10;0.10;;;;;;;;;;5094608;27;20578;-48
2023/06/19 10:17:47;;;;;;;0.10;0.10;;;;;;;;;;5132701;27;20549;-48
2023/06/19 10:20:31;;;;;;;0.10;0.10;;;;;;;;;;5117242;27;20122;-47
2023/06/19 10:23:03;;;;;;;0.10;0.10;;;;;;;;;;5105558;27;20827;-54
2023/06/19 10:25:31;;;;;;;0.10;0.10;;;;;;;;;;5103133;27;20323;-49
2023/06/19 10:27:58;;;;;;;0.10;0.10;;;;;;;;;;5083800;27;20213;-52
2023/06/19 10:30:23;;;;;;;0.10;0.10;;;;;;;;;;5122375;27;20061;-49
2023/06/19 10:32:49;;;;;;;0.20;0.20;;;;;;;;;;5129937;27;20467;-49
2023/06/19 10:35:16;;;;;;;0.10;0.10;;;;;;;;;;5120173;27;20090;-50
2023/06/19 10:37:42;;;;;;;0.15;0.15;;;;;;;;;;5120916;27;20051;-51
2023/06/19 10:40:09;;;;;;;0.10;0.10;;;;;;;;;;5126876;27;20100;-51
2023/06/19 10:42:36;;;;;;;0.10;0.10;;;;;;;;;;5126238;27;20051;-50
2023/06/19 10:45:03;;;;;;;0.10;0.10;;;;;;;;;;5095399;27;20499;-48
2023/06/19 10:47:28;;;;;;;0.10;0.10;;;;;;;;;;5098152;27;20142;-52
2023/06/19 10:49:54;;;;;;;0.10;0.10;;;;;;;;;;5123904;27;20671;-52
2023/06/19 10:52:20;;;;;;;0.10;0.10;;;;;;;;;;5119360;27;20542;-50
2023/06/19 10:54:45;;;;;;;0.10;0.10;;;;;;;;;;5100262;27;20078;-48
2023/06/19 10:57:13;;;;;;;0.10;0.10;;;;;;;;;;5124374;27;20050;-49
2023/06/19 10:59:39;;;;;;;0.10;0.10;;;;;;;;;;5116899;27;20085;-49
2023/06/19 11:02:05;;;;;;;0.10;0.10;;;;;;;;;;5118935;27;20046;-48
2023/06/19 11:04:31;;;;;;;0.10;0.10;;;;;;;;;;5129283;27;20054;-48
2023/06/19 11:06:56;;;;;;;0.10;0.10;;;;;;;;;;5121417;27;20051;-51
2023/06/19 11:09:22;;;;;;;0.10;0.10;;;;;;;;;;5122860;27;20486;-52
2023/06/19 11:11:48;;;;;;;0.10;0.10;;;;;;;;;;5117534;27;20070;-47
2023/06/19 11:14:15;;;;;;;0.10;0.10;;;;;;;;;;5118119;27;20784;-49
2023/06/19 11:16:41;;;;;;;0.10;0.10;;;;;;;;;;5115717;27;20040;-47
2023/06/19 11:19:08;;;;;;;0.10;0.10;;;;;;;;;;5106201;27;20086;-48
2023/06/19 11:21:34;;;;;;;0.10;0.10;;;;;;;;;;5118938;27;20074;-48
2023/06/19 11:24:01;;;;;;;0.20;0.20;;;;;;;;;;5123504;27;20062;-47
2023/06/19 11:26:27;;;;;;;0.10;0.10;;;;;;;;;;5105764;27;20214;-47
2023/06/19 11:28:53;;;;;;;0.10;0.10;;;;;;;;;;5120464;27;20040;-48
2023/06/19 11:31:25;;;;;;;0.10;0.10;;;;;;;;;;5122008;27;20043;-47
2023/06/19 11:33:59;;;;;;;0.13;0.13;;;;;;;;;;5106577;27;20171;-48
2023/06/19 11:36:24;;;;;;;0.10;0.10;;;;;;;;;;5116090;27;20044;-47
2023/06/19 11:38:51;;;;;;;0.10;0.10;;;;;;;;;;5122099;27;20458;-47
2023/06/19 11:41:24;;;;;;;0.10;0.10;;;;;;;;;;5120709;27;20079;-48
2023/06/19 11:43:50;;;;;;;0.10;0.10;;;;;;;;;;5117140;27;20048;-47
2023/06/19 11:46:15;;;;;;;0.10;0.10;;;;;;;;;;5115935;27;20035;-47
2023/06/19 11:48:41;;;;;;;0.10;0.10;;;;;;;;;;5125853;27;20646;-46
2023/06/19 11:51:10;;;;;;;0.10;0.10;;;;;;;;;;5121562;27;20441;-48
2023/06/19 11:53:35;;;;;;;0.10;0.10;;;;;;;;;;5122428;27;20448;-47
2023/06/19 11:56:01;;;;;;;0.10;0.10;;;;;;;;;;5130303;27;20058;-47
2023/06/19 11:58:27;;;;;;;0.10;0.10;;;;;;;;;;5111960;27;20050;-48
2023/06/19 12:00:53;;;;;;;0.10;0.10;;;;;;;;;;5111350;27;20166;-47
2023/06/19 12:03:18;;;;;;;0.10;0.10;;;;;;;;;;5082487;28;20079;-51
2023/06/19 12:05:44;;;;;;;0.10;0.10;;;;;;;;;;5105502;28;20492;-47
2023/06/19 12:08:10;;;;;;;0.10;0.10;;;;;;;;;;5109466;28;20112;-50
2023/06/19 12:10:36;;;;;;;0.10;0.10;;;;;;;;;;5105252;28;20462;-48
2023/06/19 12:13:01;;;;;;;0.10;0.10;;;;;;;;;;5114206;28;20048;-47
2023/06/19 12:15:27;;;;;;;0.10;0.10;;;;;;;;;;5110918;28;20055;-51
2023/06/19 12:17:53;;;;;;;0.15;0.15;;;;;;;;;;5119656;27;20043;-50
2023/06/19 12:20:19;;;;;;;0.10;0.10;;;;;;;;;;5112768;27;22692;-48
2023/06/19 12:22:44;;;;;;;0.10;0.10;;;;;;;;;;5112353;27;20068;-47
2023/06/19 12:25:10;;;;;;;0.10;0.10;;;;;;;;;;5107959;27;20562;-47
2023/06/19 12:27:37;;;;;;;0.10;0.10;;;;;;;;;;5114900;27;20416;-48
2023/06/19 12:30:03;;;;;;;0.20;0.20;;;;;;;;;;5115087;27;20712;-48
2023/06/19 12:32:28;;;;;;;0.10;0.10;;;;;;;;;;5118353;27;20049;-47
2023/06/19 12:34:54;;;;;;;0.10;0.10;;;;;;;;;;5120981;27;20043;-53
2023/06/19 12:37:20;;;;;;;0.10;0.10;;;;;;;;;;5127341;27;20482;-52
2023/06/19 12:39:46;;;;;;;0.10;0.10;;;;;;;;;;5126420;27;20120;-52
2023/06/19 12:42:12;;;;;;;0.10;0.10;;;;;;;;;;5116530;27;20047;-53
2023/06/19 12:44:38;;;;;;;0.20;0.20;;;;;;;;;;5113912;27;20077;-52
2023/06/19 12:47:04;;;;;;;0.10;0.10;;;;;;;;;;5112701;27;20480;-53
2023/06/19 12:49:30;;;;;;;0.10;0.10;;;;;;;;;;5122430;27;20066;-51
2023/06/19 12:51:56;;;;;;;0.10;0.10;;;;;;;;;;5123661;27;20146;-52
2023/06/19 12:54:21;;;;;;;0.10;0.10;;;;;;;;;;5100025;28;20069;-53
2023/06/19 12:56:47;;;;;;;0.10;0.10;;;;;;;;;;5113891;28;20100;-51
2023/06/19 12:59:13;;;;;;;0.10;0.10;;;;;;;;;;5108608;28;20073;-53
2023/06/19 13:01:38;;;;;;;0.30;0.30;;;;;;;;;;5107840;27;20050;-51
2023/06/19 13:04:04;;;;;;;0.10;0.10;;;;;;;;;;5107439;28;20068;-51
2023/06/19 13:06:30;;;;;;;0.10;0.10;;;;;;;;;;5111593;27;20479;-51
2023/06/19 13:08:55;;;;;;;0.10;0.10;;;;;;;;;;5127286;27;20126;-49
2023/06/19 13:11:21;;;;;;;0.10;0.10;;;;;;;;;;5116526;27;20050;-49
2023/06/19 13:13:46;;;;;;;0.10;0.10;;;;;;;;;;5120167;27;20046;-50
2023/06/19 13:16:12;;;;;;;0.10;0.10;;;;;;;;;;5123684;27;20054;-49
2023/06/19 13:18:40;;;;;;;0.10;0.10;;;;;;;;;;5133468;27;20058;-47
2023/06/19 13:21:05;;;;;;;0.10;0.10;;;;;;;;;;5127734;27;20830;-47
2023/06/19 13:23:31;;;;;;;0.30;0.20;;;;;;;;;;5104939;27;20043;-50
2023/06/19 13:25:57;;;;;;;0.10;0.10;;;;;;;;;;5125599;27;20263;-48
2023/06/19 13:28:22;;;;;;;0.10;0.10;;;;;;;;;;5124900;27;20090;-52
2023/06/19 13:30:48;;;;;;;0.10;0.10;;;;;;;;;;5101077;27;20352;-48
2023/06/19 13:33:14;;;;;;;0.10;0.10;;;;;;;;;;5112206;28;20046;-47
2023/06/19 13:35:40;;;;;;;0.10;0.10;;;;;;;;;;5121090;27;20051;-48
2023/06/19 13:38:06;;;;;;;0.17;0.17;;;;;;;;;;5120339;27;20055;-50
2023/06/19 13:40:31;;;;;;;0.10;0.10;;;;;;;;;;5113154;27;20058;-47
2023/06/19 13:42:58;;;;;;;0.10;0.10;;;;;;;;;;5131224;27;20066;-48
2023/06/19 13:45:24;;;;;;;0.10;0.10;;;;;;;;;;5115939;27;20297;-47
2023/06/19 13:47:49;;;;;;;0.10;0.10;;;;;;;;;;5117630;27;20877;-50
2023/06/19 13:50:18;;;;;;;0.10;0.10;;;;;;;;;;5119514;27;20039;-47
2023/06/19 13:52:44;;;;;;;0.10;0.10;;;;;;;;;;5125921;27;20185;-47
2023/06/19 13:55:10;;;;;;;0.10;0.10;;;;;;;;;;5119383;27;20058;-47
2023/06/19 13:57:37;;;;;;;0.10;0.10;;;;;;;;;;5114500;27;20056;-47
2023/06/19 14:00:03;;;;;;;0.10;0.10;;;;;;;;;;5125892;28;20091;-48
2023/06/19 14:02:28;;;;;;;0.10;0.10;;;;;;;;;;5119687;27;20035;-48
2023/06/19 14:04:54;;;;;;;0.17;0.17;;;;;;;;;;5118147;27;20040;-51
2023/06/19 14:07:21;;;;;;;0.10;0.10;;;;;;;;;;5119417;28;20074;-47
2023/06/19 14:09:48;;;;;;;0.10;0.10;;;;;;;;;;5112117;28;20047;-46
2023/06/19 14:12:13;;;;;;;0.10;0.10;;;;;;;;;;5123688;28;20059;-47
2023/06/19 14:14:39;;;;;;;0.10;0.10;;;;;;;;;;5124899;28;20073;-46
2023/06/19 14:17:04;;;;;;;0.10;0.10;;;;;;;;;;5109340;28;20054;-46
2023/06/19 14:19:31;;;;;;;0.10;0.10;;;;;;;;;;5124818;28;20042;-46
2023/06/19 14:21:56;;;;;;;0.10;0.10;;;;;;;;;;5126259;28;20055;-48
2023/06/19 14:24:23;;;;;;;0.10;0.10;;;;;;;;;;5108709;28;20098;-46
2023/06/19 14:26:49;;;;;;;0.10;0.10;;;;;;;;;;5104309;28;20044;-47
2023/06/19 14:29:15;;;;;;;0.10;0.10;;;;;;;;;;5097963;28;20048;-46
2023/06/19 14:31:41;;;;;;;0.10;0.10;;;;;;;;;;5121856;28;20116;-47
2023/06/19 14:34:06;;;;;;;0.10;0.10;;;;;;;;;;5123504;28;20486;-46
2023/06/19 14:36:32;;;;;;;0.10;0.10;;;;;;;;;;5113484;28;20051;-47
2023/06/19 14:38:58;;;;;;;0.10;0.10;;;;;;;;;;5108366;28;20044;-50